sensor_id;sensor_type;location;lat;lon;timestamp;pressure;altitude;pressure_sealevel;temperature;humidity
21988;BME280;11158;53.404;-1.510;2024-02-23T00:00:24;97269.56;;;3.16;91.25
21988;BME280;11158;53.404;-1.510;2024-02-23T00:02:51;97276.88;;;3.25;91.78
21988;BME280;11158;53.404;-1.510;2024-02-23T00:05:16;97269.66;;;3.29;91.73
21988;BME280;11158;53.404;-1.510;2024-02-23T00:07:44;97265.78;;;3.35;91.20
21988;BME280;11158;53.404;-1.510;2024-02-23T00:10:21;97268.13;;;3.39;90.69
21988;BME280;11158;53.404;-1.510;2024-02-23T00:12:47;97262.50;;;3.45;90.15
21988;BME280;11158;53.404;-1.510;2024-02-23T00:15:13;97266.53;;;3.51;89.37
21988;BME280;11158;53.404;-1.510;2024-02-23T00:17:38;97262.50;;;3.45;89.66
21988;BME280;11158;53.404;-1.510;2024-02-23T00:20:05;97271.00;;;3.49;90.44
21988;BME280;11158;53.404;-1.510;2024-02-23T00:22:32;97266.22;;;3.56;88.75
21988;BME280;11158;53.404;-1.510;2024-02-23T00:24:59;97263.50;;;3.43;88.79
21988;BME280;11158;53.404;-1.510;2024-02-23T00:27:24;97261.94;;;3.40;88.91
21988;BME280;11158;53.404;-1.510;2024-02-23T00:29:49;97270.38;;;3.45;88.75
21988;BME280;11158;53.404;-1.510;2024-02-23T00:32:15;97269.44;;;3.46;90.00
21988;BME280;11158;53.404;-1.510;2024-02-23T00:34:40;97270.09;;;3.50;89.66
21988;BME280;11158;53.404;-1.510;2024-02-23T00:37:06;97263.78;;;3.52;90.70
21988;BME280;11158;53.404;-1.510;2024-02-23T00:39:33;97262.94;;;3.52;90.71
21988;BME280;11158;53.404;-1.510;2024-02-23T00:41:58;97261.25;;;3.51;90.66
21988;BME280;11158;53.404;-1.510;2024-02-23T00:44:23;97269.81;;;3.40;92.17
21988;BME280;11158;53.404;-1.510;2024-02-23T00:46:49;97267.63;;;3.47;93.05
21988;BME280;11158;53.404;-1.510;2024-02-23T00:49:14;97269.53;;;3.45;92.36
21988;BME280;11158;53.404;-1.510;2024-02-23T00:51:40;97269.00;;;3.40;92.33
21988;BME280;11158;53.404;-1.510;2024-02-23T00:54:05;97264.34;;;3.43;92.60
21988;BME280;11158;53.404;-1.510;2024-02-23T00:56:33;97257.22;;;3.45;93.01
21988;BME280;11158;53.404;-1.510;2024-02-23T00:58:58;97253.53;;;3.48;92.91
21988;BME280;11158;53.404;-1.510;2024-02-23T01:01:24;97249.84;;;3.50;92.95
21988;BME280;11158;53.404;-1.510;2024-02-23T01:03:51;97254.09;;;3.53;92.36
21988;BME280;11158;53.404;-1.510;2024-02-23T01:06:16;97250.06;;;3.47;92.24
21988;BME280;11158;53.404;-1.510;2024-02-23T01:08:42;97251.66;;;3.50;92.75
21988;BME280;11158;53.404;-1.510;2024-02-23T01:11:08;97258.72;;;3.49;93.90
21988;BME280;11158;53.404;-1.510;2024-02-23T01:13:33;97252.06;;;3.44;92.20
21988;BME280;11158;53.404;-1.510;2024-02-23T01:15:58;97248.72;;;3.55;92.93
21988;BME280;11158;53.404;-1.510;2024-02-23T01:18:24;97248.94;;;3.51;93.59
21988;BME280;11158;53.404;-1.510;2024-02-23T01:20:49;97249.84;;;3.50;92.33
21988;BME280;11158;53.404;-1.510;2024-02-23T01:23:14;97252.31;;;3.54;93.51
21988;BME280;11158;53.404;-1.510;2024-02-23T01:25:40;97245.66;;;3.48;92.85
21988;BME280;11158;53.404;-1.510;2024-02-23T01:28:06;97245.47;;;3.51;92.26
21988;BME280;11158;53.404;-1.510;2024-02-23T01:30:31;97240.06;;;3.52;92.07
21988;BME280;11158;53.404;-1.510;2024-02-23T01:32:56;97233.03;;;3.53;93.06
21988;BME280;11158;53.404;-1.510;2024-02-23T01:35:26;97243.75;;;3.50;94.24
21988;BME280;11158;53.404;-1.510;2024-02-23T01:37:53;97241.22;;;3.48;93.05
21988;BME280;11158;53.404;-1.510;2024-02-23T01:40:18;97239.63;;;3.46;94.30
21988;BME280;11158;53.404;-1.510;2024-02-23T01:42:44;97243.28;;;3.43;93.73
21988;BME280;11158;53.404;-1.510;2024-02-23T01:45:10;97232.56;;;3.46;94.81
21988;BME280;11158;53.404;-1.510;2024-02-23T01:47:35;97229.75;;;3.49;94.87
21988;BME280;11158;53.404;-1.510;2024-02-23T01:50:01;97229.50;;;3.40;93.74
21988;BME280;11158;53.404;-1.510;2024-02-23T01:52:27;97232.47;;;3.48;94.60
21988;BME280;11158;53.404;-1.510;2024-02-23T01:54:52;97234.94;;;3.51;93.91
21988;BME280;11158;53.404;-1.510;2024-02-23T01:57:19;97225.31;;;3.50;93.68
21988;BME280;11158;53.404;-1.510;2024-02-23T01:59:46;97220.91;;;3.50;93.54
21988;BME280;11158;53.404;-1.510;2024-02-23T02:02:11;97214.13;;;3.61;94.11
21988;BME280;11158;53.404;-1.510;2024-02-23T02:04:37;97206.50;;;3.56;94.29
21988;BME280;11158;53.404;-1.510;2024-02-23T02:07:02;97212.47;;;3.45;94.06
21988;BME280;11158;53.404;-1.510;2024-02-23T02:09:28;97211.50;;;3.46;94.10
21988;BME280;11158;53.404;-1.510;2024-02-23T02:11:53;97214.97;;;3.47;94.03
21988;BME280;11158;53.404;-1.510;2024-02-23T02:14:18;97213.00;;;3.50;94.97
21988;BME280;11158;53.404;-1.510;2024-02-23T02:16:44;97210.59;;;3.47;93.71
21988;BME280;11158;53.404;-1.510;2024-02-23T02:19:11;97202.13;;;3.42;93.50
21988;BME280;11158;53.404;-1.510;2024-02-23T02:21:36;97208.31;;;3.41;93.90
21988;BME280;11158;53.404;-1.510;2024-02-23T02:24:02;97218.19;;;3.38;93.44
21988;BME280;11158;53.404;-1.510;2024-02-23T02:26:28;97214.81;;;3.36;94.66
21988;BME280;11158;53.404;-1.510;2024-02-23T02:28:54;97220.16;;;3.48;95.06
21988;BME280;11158;53.404;-1.510;2024-02-23T02:31:19;97208.22;;;3.43;93.98
21988;BME280;11158;53.404;-1.510;2024-02-23T02:33:44;97216.78;;;3.46;94.17
21988;BME280;11158;53.404;-1.510;2024-02-23T02:36:10;97210.75;;;3.44;93.56
21988;BME280;11158;53.404;-1.510;2024-02-23T02:38:36;97215.34;;;3.55;94.02
21988;BME280;11158;53.404;-1.510;2024-02-23T02:41:02;97222.19;;;3.58;93.34
21988;BME280;11158;53.404;-1.510;2024-02-23T02:43:27;97218.47;;;3.47;92.76
21988;BME280;11158;53.404;-1.510;2024-02-23T02:45:53;97213.56;;;3.56;93.14
21988;BME280;11158;53.404;-1.510;2024-02-23T02:48:18;97214.13;;;3.61;93.58
21988;BME280;11158;53.404;-1.510;2024-02-23T02:50:44;97210.44;;;3.63;93.65
21988;BME280;11158;53.404;-1.510;2024-02-23T02:53:09;97209.22;;;3.55;92.56
21988;BME280;11158;53.404;-1.510;2024-02-23T02:55:36;97206.97;;;3.63;94.73
21988;BME280;11158;53.404;-1.510;2024-02-23T02:58:01;97209.78;;;3.60;93.35
21988;BME280;11158;53.404;-1.510;2024-02-23T03:00:27;97216.28;;;3.54;93.48
21988;BME280;11158;53.404;-1.510;2024-02-23T03:02:52;97203.69;;;3.59;94.69
21988;BME280;11158;53.404;-1.510;2024-02-23T03:05:18;97195.13;;;3.56;94.90
21988;BME280;11158;53.404;-1.510;2024-02-23T03:07:44;97187.22;;;3.56;95.20
21988;BME280;11158;53.404;-1.510;2024-02-23T03:10:10;97187.81;;;3.46;95.58
21988;BME280;11158;53.404;-1.510;2024-02-23T03:12:35;97182.50;;;3.33;96.63
21988;BME280;11158;53.404;-1.510;2024-02-23T03:15:00;97181.22;;;3.26;95.95
21988;BME280;11158;53.404;-1.510;2024-02-23T03:17:28;97186.75;;;3.22;97.06
21988;BME280;11158;53.404;-1.510;2024-02-23T03:19:54;97178.94;;;3.20;97.43
21988;BME280;11158;53.404;-1.510;2024-02-23T03:22:20;97189.78;;;3.16;97.47
21988;BME280;11158;53.404;-1.510;2024-02-23T03:24:45;97174.09;;;3.14;97.28
21988;BME280;11158;53.404;-1.510;2024-02-23T03:27:10;97180.75;;;3.05;97.35
21988;BME280;11158;53.404;-1.510;2024-02-23T03:29:38;97181.81;;;3.03;97.69
21988;BME280;11158;53.404;-1.510;2024-02-23T03:32:03;97184.63;;;3.00;97.39
21988;BME280;11158;53.404;-1.510;2024-02-23T03:34:29;97174.47;;;2.93;98.11
21988;BME280;11158;53.404;-1.510;2024-02-23T03:36:54;97173.81;;;3.04;98.49
21988;BME280;11158;53.404;-1.510;2024-02-23T03:39:20;97176.09;;;2.96;99.14
21988;BME280;11158;53.404;-1.510;2024-02-23T03:41:45;97182.84;;;2.86;99.40
21988;BME280;11158;53.404;-1.510;2024-02-23T03:44:11;97172.81;;;2.92;98.98
21988;BME280;11158;53.404;-1.510;2024-02-23T03:46:36;97175.22;;;2.96;99.15
21988;BME280;11158;53.404;-1.510;2024-02-23T03:49:01;97180.97;;;2.88;99.30
21988;BME280;11158;53.404;-1.510;2024-02-23T03:51:27;97179.75;;;2.93;99.64
21988;BME280;11158;53.404;-1.510;2024-02-23T03:53:52;97181.25;;;2.98;99.20
21988;BME280;11158;53.404;-1.510;2024-02-23T03:56:18;97181.88;;;3.01;99.18
21988;BME280;11158;53.404;-1.510;2024-02-23T03:58:43;97188.38;;;2.96;99.14
21988;BME280;11158;53.404;-1.510;2024-02-23T04:01:08;97174.22;;;2.98;99.06
21988;BME280;11158;53.404;-1.510;2024-02-23T04:03:34;97180.78;;;2.91;98.88
21988;BME280;11158;53.404;-1.510;2024-02-23T04:06:00;97177.84;;;2.96;98.66
21988;BME280;11158;53.404;-1.510;2024-02-23T04:08:25;97171.00;;;2.93;98.90
21988;BME280;11158;53.404;-1.510;2024-02-23T04:10:51;97169.78;;;2.99;98.69
21988;BME280;11158;53.404;-1.510;2024-02-23T04:13:16;97162.19;;;2.94;98.84
21988;BME280;11158;53.404;-1.510;2024-02-23T04:15:44;97168.81;;;3.00;98.57
21988;BME280;11158;53.404;-1.510;2024-02-23T04:18:09;97172.13;;;3.03;98.41
21988;BME280;11158;53.404;-1.510;2024-02-23T04:20:35;97157.38;;;3.01;98.50
21988;BME280;11158;53.404;-1.510;2024-02-23T04:23:00;97162.81;;;2.98;98.18
21988;BME280;11158;53.404;-1.510;2024-02-23T04:25:26;97166.09;;;3.01;98.73
21988;BME280;11158;53.404;-1.510;2024-02-23T04:27:51;97169.31;;;2.92;98.74
21988;BME280;11158;53.404;-1.510;2024-02-23T04:30:17;97161.41;;;2.92;99.15
21988;BME280;11158;53.404;-1.510;2024-02-23T04:32:42;97160.50;;;2.93;99.15
21988;BME280;11158;53.404;-1.510;2024-02-23T04:35:09;97173.25;;;2.99;99.44
21988;BME280;11158;53.404;-1.510;2024-02-23T04:37:35;97175.63;;;2.89;99.19
21988;BME280;11158;53.404;-1.510;2024-02-23T04:40:00;97172.72;;;2.80;99.95
21988;BME280;11158;53.404;-1.510;2024-02-23T04:42:26;97175.72;;;2.88;100.00
21988;BME280;11158;53.404;-1.510;2024-02-23T04:44:52;97173.56;;;2.95;99.29
21988;BME280;11158;53.404;-1.510;2024-02-23T04:47:20;97171.66;;;2.97;99.05
21988;BME280;11158;53.404;-1.510;2024-02-23T04:49:46;97180.31;;;2.99;99.05
21988;BME280;11158;53.404;-1.510;2024-02-23T04:52:11;97179.56;;;2.97;98.89
21988;BME280;11158;53.404;-1.510;2024-02-23T04:54:36;97182.75;;;3.02;98.68
21988;BME280;11158;53.404;-1.510;2024-02-23T04:57:02;97179.66;;;3.09;98.61
21988;BME280;11158;53.404;-1.510;2024-02-23T04:59:27;97180.22;;;3.00;98.77
21988;BME280;11158;53.404;-1.510;2024-02-23T05:01:53;97181.81;;;3.03;99.69
21988;BME280;11158;53.404;-1.510;2024-02-23T05:04:18;97196.53;;;3.05;98.74
21988;BME280;11158;53.404;-1.510;2024-02-23T05:06:44;97202.66;;;3.06;98.69
21988;BME280;11158;53.404;-1.510;2024-02-23T05:09:09;97206.13;;;3.06;98.48
21988;BME280;11158;53.404;-1.510;2024-02-23T05:11:35;97196.84;;;3.01;99.75
21988;BME280;11158;53.404;-1.510;2024-02-23T05:14:00;97207.84;;;2.93;99.44
21988;BME280;11158;53.404;-1.510;2024-02-23T05:16:26;97209.06;;;2.87;99.87
21988;BME280;11158;53.404;-1.510;2024-02-23T05:18:51;97220.25;;;2.91;99.96
21988;BME280;11158;53.404;-1.510;2024-02-23T05:21:17;97219.69;;;3.00;100.00
21988;BME280;11158;53.404;-1.510;2024-02-23T05:23:42;97218.44;;;2.91;99.82
21988;BME280;11158;53.404;-1.510;2024-02-23T05:26:08;97222.03;;;2.90;99.49
21988;BME280;11158;53.404;-1.510;2024-02-23T05:28:33;97221.34;;;3.01;99.26
21988;BME280;11158;53.404;-1.510;2024-02-23T05:30:58;97217.78;;;3.02;99.10
21988;BME280;11158;53.404;-1.510;2024-02-23T05:33:24;97213.94;;;3.08;99.92
21988;BME280;11158;53.404;-1.510;2024-02-23T05:35:50;97219.69;;;3.00;99.35
21988;BME280;11158;53.404;-1.510;2024-02-23T05:38:16;97228.69;;;3.10;98.67
21988;BME280;11158;53.404;-1.510;2024-02-23T05:40:41;97223.41;;;3.10;98.61
21988;BME280;11158;53.404;-1.510;2024-02-23T05:43:07;97227.19;;;3.21;97.76
21988;BME280;11158;53.404;-1.510;2024-02-23T05:45:33;97224.44;;;3.22;96.99
21988;BME280;11158;53.404;-1.510;2024-02-23T05:47:58;97222.84;;;3.20;96.67
21988;BME280;11158;53.404;-1.510;2024-02-23T05:50:23;97215.69;;;3.22;97.35
21988;BME280;11158;53.404;-1.510;2024-02-23T05:52:49;97221.91;;;3.21;97.27
21988;BME280;11158;53.404;-1.510;2024-02-23T05:55:14;97224.72;;;3.18;96.97
21988;BME280;11158;53.404;-1.510;2024-02-23T05:57:40;97232.16;;;3.25;97.67
21988;BME280;11158;53.404;-1.510;2024-02-23T06:00:05;97221.44;;;3.28;97.34
21988;BME280;11158;53.404;-1.510;2024-02-23T06:02:32;97233.53;;;3.31;97.08
21988;BME280;11158;53.404;-1.510;2024-02-23T06:04:58;97230.91;;;3.31;97.67
21988;BME280;11158;53.404;-1.510;2024-02-23T06:07:24;97237.75;;;3.33;97.19
21988;BME280;11158;53.404;-1.510;2024-02-23T06:09:57;97234.94;;;3.37;96.90
21988;BME280;11158;53.404;-1.510;2024-02-23T06:12:24;97237.28;;;3.41;96.26
21988;BME280;11158;53.404;-1.510;2024-02-23T06:14:51;97232.75;;;3.43;95.73
21988;BME280;11158;53.404;-1.510;2024-02-23T06:17:16;97230.34;;;3.40;96.58
21988;BME280;11158;53.404;-1.510;2024-02-23T06:19:42;97237.19;;;3.43;96.04
21988;BME280;11158;53.404;-1.510;2024-02-23T06:22:07;97231.72;;;3.46;97.85
21988;BME280;11158;53.404;-1.510;2024-02-23T06:24:35;97233.53;;;3.45;96.48
21988;BME280;11158;53.404;-1.510;2024-02-23T06:27:00;97229.94;;;3.46;97.09
21988;BME280;11158;53.404;-1.510;2024-02-23T06:29:27;97234.28;;;3.47;97.13
21988;BME280;11158;53.404;-1.510;2024-02-23T06:31:52;97243.84;;;3.48;96.37
21988;BME280;11158;53.404;-1.510;2024-02-23T06:34:17;97235.75;;;3.51;96.09
21988;BME280;11158;53.404;-1.510;2024-02-23T06:36:43;97237.66;;;3.49;97.37
21988;BME280;11158;53.404;-1.510;2024-02-23T06:39:08;97250.06;;;3.47;97.67
21988;BME280;11158;53.404;-1.510;2024-02-23T06:41:33;97251.97;;;3.45;98.53
21988;BME280;11158;53.404;-1.510;2024-02-23T06:43:59;97250.81;;;3.49;99.11
21988;BME280;11158;53.404;-1.510;2024-02-23T06:46:24;97257.00;;;3.48;99.93
21988;BME280;11158;53.404;-1.510;2024-02-23T06:48:50;97256.34;;;3.45;100.00
21988;BME280;11158;53.404;-1.510;2024-02-23T06:51:15;97250.16;;;3.46;100.00
21988;BME280;11158;53.404;-1.510;2024-02-23T06:53:41;97257.50;;;3.41;100.00
21988;BME280;11158;53.404;-1.510;2024-02-23T06:56:06;97253.28;;;3.38;100.00
21988;BME280;11158;53.404;-1.510;2024-02-23T06:58:32;97260.22;;;3.39;100.00
21988;BME280;11158;53.404;-1.510;2024-02-23T07:00:57;97261.94;;;3.40;100.00
21988;BME280;11158;53.404;-1.510;2024-02-23T07:03:23;97261.94;;;3.40;100.00
21988;BME280;11158;53.404;-1.510;2024-02-23T07:05:48;97251.41;;;3.40;100.00
21988;BME280;11158;53.404;-1.510;2024-02-23T07:08:15;97260.31;;;3.38;100.00
21988;BME280;11158;53.404;-1.510;2024-02-23T07:10:40;97259.94;;;3.44;100.00
21988;BME280;11158;53.404;-1.510;2024-02-23T07:13:06;97264.91;;;3.48;100.00
21988;BME280;11158;53.404;-1.510;2024-02-23T07:15:32;97263.25;;;3.47;100.00
21988;BME280;11158;53.404;-1.510;2024-02-23T07:17:58;97271.97;;;3.48;99.86
21988;BME280;11158;53.404;-1.510;2024-02-23T07:20:23;97268.78;;;3.43;100.00
21988;BME280;11158;53.404;-1.510;2024-02-23T07:22:49;97277.91;;;3.51;100.00
21988;BME280;11158;53.404;-1.510;2024-02-23T07:25:17;97281.84;;;3.59;100.00
21988;BME280;11158;53.404;-1.510;2024-02-23T07:27:45;97289.34;;;3.65;100.00
21988;BME280;11158;53.404;-1.510;2024-02-23T07:30:10;97284.47;;;3.59;99.92
21988;BME280;11158;53.404;-1.510;2024-02-23T07:32:36;97296.97;;;3.55;100.00
21988;BME280;11158;53.404;-1.510;2024-02-23T07:35:01;97302.16;;;3.57;100.00
21988;BME280;11158;53.404;-1.510;2024-02-23T07:37:29;97307.13;;;3.61;100.00
21988;BME280;11158;53.404;-1.510;2024-02-23T07:39:54;97304.00;;;3.69;100.00
21988;BME280;11158;53.404;-1.510;2024-02-23T07:42:20;97305.59;;;3.71;100.00
21988;BME280;11158;53.404;-1.510;2024-02-23T07:44:45;97302.94;;;3.71;100.00
21988;BME280;11158;53.404;-1.510;2024-02-23T07:47:11;97310.00;;;3.71;100.00
21988;BME280;11158;53.404;-1.510;2024-02-23T07:49:37;97302.69;;;3.76;100.00
21988;BME280;11158;53.404;-1.510;2024-02-23T07:52:02;97307.34;;;3.85;99.82
21988;BME280;11158;53.404;-1.510;2024-02-23T07:54:28;97311.75;;;3.85;99.98
21988;BME280;11158;53.404;-1.510;2024-02-23T07:56:53;97321.13;;;3.76;99.32
21988;BME280;11158;53.404;-1.510;2024-02-23T07:59:18;97321.28;;;3.73;100.00
21988;BME280;11158;53.404;-1.510;2024-02-23T08:01:44;97325.06;;;3.69;100.00
21988;BME280;11158;53.404;-1.510;2024-02-23T08:04:09;97340.31;;;3.64;100.00
21988;BME280;11158;53.404;-1.510;2024-02-23T08:06:34;97345.97;;;3.72;100.00
21988;BME280;11158;53.404;-1.510;2024-02-23T08:08:59;97347.25;;;3.79;100.00
21988;BME280;11158;53.404;-1.510;2024-02-23T08:11:25;97345.56;;;3.78;100.00
21988;BME280;11158;53.404;-1.510;2024-02-23T08:13:50;97338.06;;;3.72;100.00
21988;BME280;11158;53.404;-1.510;2024-02-23T08:16:16;97348.94;;;3.66;98.99
21988;BME280;11158;53.404;-1.510;2024-02-23T08:18:42;97347.63;;;3.87;100.00
21988;BME280;11158;53.404;-1.510;2024-02-23T08:21:09;97351.16;;;4.01;99.46
21988;BME280;11158;53.404;-1.510;2024-02-23T08:23:36;97362.72;;;3.98;100.00
21988;BME280;11158;53.404;-1.510;2024-02-23T08:26:01;97359.81;;;4.03;100.00
21988;BME280;11158;53.404;-1.510;2024-02-23T08:28:26;97361.88;;;3.98;100.00
21988;BME280;11158;53.404;-1.510;2024-02-23T08:30:52;97356.66;;;3.83;100.00
21988;BME280;11158;53.404;-1.510;2024-02-23T08:33:18;97353.19;;;3.68;100.00
21988;BME280;11158;53.404;-1.510;2024-02-23T08:35:44;97358.56;;;3.67;100.00
21988;BME280;11158;53.404;-1.510;2024-02-23T08:38:10;97365.63;;;3.66;100.00
21988;BME280;11158;53.404;-1.510;2024-02-23T08:40:36;97365.22;;;3.72;100.00
21988;BME280;11158;53.404;-1.510;2024-02-23T08:43:02;97357.25;;;3.74;100.00
21988;BME280;11158;53.404;-1.510;2024-02-23T08:45:28;97360.97;;;3.84;100.00
21988;BME280;11158;53.404;-1.510;2024-02-23T08:47:53;97365.09;;;3.88;100.00
21988;BME280;11158;53.404;-1.510;2024-02-23T08:50:19;97359.66;;;3.91;100.00
21988;BME280;11158;53.404;-1.510;2024-02-23T08:52:44;97357.75;;;3.94;100.00
21988;BME280;11158;53.404;-1.510;2024-02-23T08:55:09;97358.09;;;4.02;100.00
21988;BME280;11158;53.404;-1.510;2024-02-23T08:57:36;97352.06;;;4.14;100.00
21988;BME280;11158;53.404;-1.510;2024-02-23T09:00:02;97346.72;;;4.28;100.00
21988;BME280;11158;53.404;-1.510;2024-02-23T09:02:29;97347.25;;;4.48;100.00
21988;BME280;11158;53.404;-1.510;2024-02-23T09:04:56;97344.19;;;4.54;100.00
21988;BME280;11158;53.404;-1.510;2024-02-23T09:07:21;97362.00;;;4.50;100.00
21988;BME280;11158;53.404;-1.510;2024-02-23T09:09:47;97364.59;;;4.65;99.54
21988;BME280;11158;53.404;-1.510;2024-02-23T09:12:14;97363.84;;;4.76;99.02
21988;BME280;11158;53.404;-1.510;2024-02-23T09:14:42;97363.03;;;4.75;99.28
21988;BME280;11158;53.404;-1.510;2024-02-23T09:17:08;97369.50;;;4.84;99.02
21988;BME280;11158;53.404;-1.510;2024-02-23T09:19:35;97370.47;;;4.68;99.31
21988;BME280;11158;53.404;-1.510;2024-02-23T09:22:02;97373.81;;;4.85;99.67
21988;BME280;11158;53.404;-1.510;2024-02-23T09:24:27;97374.38;;;5.03;99.77
21988;BME280;11158;53.404;-1.510;2024-02-23T09:26:53;97371.31;;;5.09;99.43
21988;BME280;11158;53.404;-1.510;2024-02-23T09:29:18;97373.41;;;5.04;98.79
21988;BME280;11158;53.404;-1.510;2024-02-23T09:31:44;97374.16;;;5.06;100.00
21988;BME280;11158;53.404;-1.510;2024-02-23T09:34:09;97385.16;;;5.13;97.96
21988;BME280;11158;53.404;-1.510;2024-02-23T09:36:34;97392.13;;;5.01;97.77
21988;BME280;11158;53.404;-1.510;2024-02-23T09:39:00;97405.91;;;4.92;96.77
21988;BME280;11158;53.404;-1.510;2024-02-23T09:41:27;97402.81;;;4.85;100.00
21988;BME280;11158;53.404;-1.510;2024-02-23T09:43:54;97415.84;;;4.61;100.00
21988;BME280;11158;53.404;-1.510;2024-02-23T09:46:22;97426.84;;;4.40;99.95
21988;BME280;11158;53.404;-1.510;2024-02-23T09:48:48;97433.72;;;4.28;100.00
21988;BME280;11158;53.404;-1.510;2024-02-23T09:51:15;97432.94;;;3.99;100.00
21988;BME280;11158;53.404;-1.510;2024-02-23T09:53:41;97428.06;;;3.93;100.00
21988;BME280;11158;53.404;-1.510;2024-02-23T09:56:08;97424.59;;;3.78;100.00
21988;BME280;11158;53.404;-1.510;2024-02-23T09:58:35;97427.03;;;3.67;100.00
21988;BME280;11158;53.404;-1.510;2024-02-23T10:01:04;97417.63;;;3.91;100.00
21988;BME280;11158;53.404;-1.510;2024-02-23T10:03:30;97427.97;;;3.95;100.00
21988;BME280;11158;53.404;-1.510;2024-02-23T10:05:59;97420.59;;;4.00;100.00
21988;BME280;11158;53.404;-1.510;2024-02-23T10:08:27;97424.41;;;4.23;100.00
21988;BME280;11158;53.404;-1.510;2024-02-23T10:10:52;97423.75;;;4.34;100.00
21988;BME280;11158;53.404;-1.510;2024-02-23T10:13:29;97426.50;;;4.59;100.00
21988;BME280;11158;53.404;-1.510;2024-02-23T10:15:54;97434.28;;;4.48;100.00
21988;BME280;11158;53.404;-1.510;2024-02-23T10:18:20;97433.13;;;4.52;100.00
21988;BME280;11158;53.404;-1.510;2024-02-23T10:20:46;97430.91;;;4.59;100.00
21988;BME280;11158;53.404;-1.510;2024-02-23T10:23:11;97438.84;;;4.86;100.00
21988;BME280;11158;53.404;-1.510;2024-02-23T10:25:37;97437.06;;;5.12;100.00
21988;BME280;11158;53.404;-1.510;2024-02-23T10:28:06;97442.19;;;5.28;99.81
21988;BME280;11158;53.404;-1.510;2024-02-23T10:30:31;97441.66;;;5.23;98.44
21988;BME280;11158;53.404;-1.510;2024-02-23T10:32:58;97450.13;;;5.28;97.55
21988;BME280;11158;53.404;-1.510;2024-02-23T10:35:24;97452.22;;;5.23;98.30
21988;BME280;11158;53.404;-1.510;2024-02-23T10:37:51;97462.78;;;5.23;98.66
21988;BME280;11158;53.404;-1.510;2024-02-23T10:40:18;97463.19;;;5.17;100.00
21988;BME280;11158;53.404;-1.510;2024-02-23T10:42:45;97467.50;;;5.05;99.09
21988;BME280;11158;53.404;-1.510;2024-02-23T10:45:15;97477.59;;;4.98;100.00
21988;BME280;11158;53.404;-1.510;2024-02-23T10:47:41;97476.53;;;4.88;100.00
21988;BME280;11158;53.404;-1.510;2024-02-23T10:50:07;97480.34;;;4.69;100.00
21988;BME280;11158;53.404;-1.510;2024-02-23T10:52:33;97490.16;;;4.67;100.00
21988;BME280;11158;53.404;-1.510;2024-02-23T10:55:00;97481.66;;;4.77;100.00
21988;BME280;11158;53.404;-1.510;2024-02-23T10:57:28;97491.31;;;4.63;100.00
21988;BME280;11158;53.404;-1.510;2024-02-23T10:59:53;97492.03;;;4.65;100.00
21988;BME280;11158;53.404;-1.510;2024-02-23T11:02:20;97487.91;;;4.61;100.00
21988;BME280;11158;53.404;-1.510;2024-02-23T11:04:50;97496.09;;;4.57;100.00
21988;BME280;11158;53.404;-1.510;2024-02-23T11:07:19;97498.84;;;4.55;100.00
21988;BME280;11158;53.404;-1.510;2024-02-23T11:10:04;97494.78;;;4.64;100.00
21988;BME280;11158;53.404;-1.510;2024-02-23T11:12:30;97504.09;;;4.69;100.00
21988;BME280;11158;53.404;-1.510;2024-02-23T11:14:59;97514.38;;;4.60;100.00
21988;BME280;11158;53.404;-1.510;2024-02-23T11:17:32;97509.84;;;4.62;100.00
21988;BME280;11158;53.404;-1.510;2024-02-23T11:19:58;97513.56;;;4.59;100.00
21988;BME280;11158;53.404;-1.510;2024-02-23T11:22:33;97512.41;;;4.49;100.00
21988;BME280;11158;53.404;-1.510;2024-02-23T11:25:01;97518.53;;;4.49;100.00
21988;BME280;11158;53.404;-1.510;2024-02-23T11:27:33;97527.59;;;4.45;100.00
21988;BME280;11158;53.404;-1.510;2024-02-23T11:30:03;97527.41;;;4.48;100.00
21988;BME280;11158;53.404;-1.510;2024-02-23T11:32:39;97536.06;;;4.50;100.00
21988;BME280;11158;53.404;-1.510;2024-02-23T11:35:07;97528.06;;;4.38;100.00
21988;BME280;11158;53.404;-1.510;2024-02-23T11:37:54;97527.22;;;4.52;100.00
21988;BME280;11158;53.404;-1.510;2024-02-23T11:40:28;97526.63;;;4.61;100.00
21988;BME280;11158;53.404;-1.510;2024-02-23T11:42:57;97533.28;;;4.81;100.00
21988;BME280;11158;53.404;-1.510;2024-02-23T11:45:28;97535.66;;;4.98;100.00
21988;BME280;11158;53.404;-1.510;2024-02-23T11:47:53;97538.03;;;5.16;99.50
21988;BME280;11158;53.404;-1.510;2024-02-23T11:50:19;97534.91;;;4.96;96.25
21988;BME280;11158;53.404;-1.510;2024-02-23T11:52:47;97541.84;;;4.84;99.29
21988;BME280;11158;53.404;-1.510;2024-02-23T11:55:12;97534.66;;;4.86;99.17
21988;BME280;11158;53.404;-1.510;2024-02-23T11:57:44;97527.84;;;4.97;100.00
21988;BME280;11158;53.404;-1.510;2024-02-23T12:00:10;97528.59;;;4.99;100.00
21988;BME280;11158;53.404;-1.510;2024-02-23T12:02:36;97520.41;;;4.89;100.00
21988;BME280;11158;53.404;-1.510;2024-02-23T12:05:02;97527.34;;;4.77;100.00
21988;BME280;11158;53.404;-1.510;2024-02-23T12:07:31;97519.44;;;4.77;100.00
21988;BME280;11158;53.404;-1.510;2024-02-23T12:09:57;97520.72;;;4.84;99.66
21988;BME280;11158;53.404;-1.510;2024-02-23T12:12:23;97517.78;;;4.89;100.00
21988;BME280;11158;53.404;-1.510;2024-02-23T12:14:49;97519.81;;;4.98;99.52
21988;BME280;11158;53.404;-1.510;2024-02-23T12:17:14;97514.28;;;5.16;99.53
21988;BME280;11158;53.404;-1.510;2024-02-23T12:19:40;97519.50;;;5.30;100.00
21988;BME280;11158;53.404;-1.510;2024-02-23T12:22:06;97514.41;;;5.27;99.13
21988;BME280;11158;53.404;-1.510;2024-02-23T12:24:31;97515.06;;;5.31;97.87
21988;BME280;11158;53.404;-1.510;2024-02-23T12:26:57;97513.53;;;5.41;99.21
21988;BME280;11158;53.404;-1.510;2024-02-23T12:29:23;97509.63;;;5.46;100.00
21988;BME280;11158;53.404;-1.510;2024-02-23T12:31:49;97509.13;;;5.54;99.58
21988;BME280;11158;53.404;-1.510;2024-02-23T12:34:14;97500.56;;;5.76;95.99
21988;BME280;11158;53.404;-1.510;2024-02-23T12:36:41;97502.50;;;6.00;93.85
21988;BME280;11158;53.404;-1.510;2024-02-23T12:39:06;97499.72;;;6.27;87.87
21988;BME280;11158;53.404;-1.510;2024-02-23T12:41:31;97505.09;;;6.38;85.19
21988;BME280;11158;53.404;-1.510;2024-02-23T12:43:57;97501.38;;;6.41;84.07
21988;BME280;11158;53.404;-1.510;2024-02-23T12:46:23;97502.44;;;6.38;82.09
21988;BME280;11158;53.404;-1.510;2024-02-23T12:48:51;97509.19;;;6.42;83.05
21988;BME280;11158;53.404;-1.510;2024-02-23T12:51:16;97503.47;;;6.49;79.70